sensor_id;sensor_type;location;lat;lon;timestamp;temperature;humidity
47482;DHT22;33219;47.410;9.730;2023-12-29T00:01:24;4.70;99.90
47482;DHT22;33219;47.410;9.730;2023-12-29T00:03:50;4.80;99.90
47482;DHT22;33219;47.410;9.730;2023-12-29T00:06:17;4.70;99.90
47482;DHT22;33219;47.410;9.730;2023-12-29T00:08:44;4.60;99.90
47482;DHT22;33219;47.410;9.730;2023-12-29T00:11:21;4.60;99.90
47482;DHT22;33219;47.410;9.730;2023-12-29T00:13:48;4.50;99.90
47482;DHT22;33219;47.410;9.730;2023-12-29T00:16:15;4.30;99.90
47482;DHT22;33219;47.410;9.730;2023-12-29T00:18:42;4.30;99.90
47482;DHT22;33219;47.410;9.730;2023-12-29T00:21:09;4.10;99.90
47482;DHT22;33219;47.410;9.730;2023-12-29T00:23:35;4.00;99.90
47482;DHT22;33219;47.410;9.730;2023-12-29T00:26:02;4.00;99.90
47482;DHT22;33219;47.410;9.730;2023-12-29T00:28:29;3.90;99.90
47482;DHT22;33219;47.410;9.730;2023-12-29T00:30:56;3.80;99.90
47482;DHT22;33219;47.410;9.730;2023-12-29T00:33:23;3.80;99.90
47482;DHT22;33219;47.410;9.730;2023-12-29T00:35:50;3.70;99.90
47482;DHT22;33219;47.410;9.730;2023-12-29T00:38:17;3.70;99.90
47482;DHT22;33219;47.410;9.730;2023-12-29T00:40:44;3.60;99.90
47482;DHT22;33219;47.410;9.730;2023-12-29T00:43:11;3.70;99.90
47482;DHT22;33219;47.410;9.730;2023-12-29T00:45:38;3.80;99.90
47482;DHT22;33219;47.410;9.730;2023-12-29T00:48:05;4.00;99.90
47482;DHT22;33219;47.410;9.730;2023-12-29T00:50:32;4.20;99.90
47482;DHT22;33219;47.410;9.730;2023-12-29T00:52:58;4.20;99.90
47482;DHT22;33219;47.410;9.730;2023-12-29T00:55:25;4.20;99.90
47482;DHT22;33219;47.410;9.730;2023-12-29T00:57:52;4.20;99.90
47482;DHT22;33219;47.410;9.730;2023-12-29T01:00:19;4.20;99.90
47482;DHT22;33219;47.410;9.730;2023-12-29T01:02:46;4.30;99.90
47482;DHT22;33219;47.410;9.730;2023-12-29T01:05:16;4.30;99.90
47482;DHT22;33219;47.410;9.730;2023-12-29T01:07:46;4.30;99.90
47482;DHT22;33219;47.410;9.730;2023-12-29T01:10:13;4.30;99.90
47482;DHT22;33219;47.410;9.730;2023-12-29T01:12:40;4.40;99.90
47482;DHT22;33219;47.410;9.730;2023-12-29T01:15:07;4.40;99.90
47482;DHT22;33219;47.410;9.730;2023-12-29T01:17:34;4.40;99.90
47482;DHT22;33219;47.410;9.730;2023-12-29T01:20:01;4.40;99.90
47482;DHT22;33219;47.410;9.730;2023-12-29T01:22:29;4.50;99.90
47482;DHT22;33219;47.410;9.730;2023-12-29T01:24:58;4.50;99.90
47482;DHT22;33219;47.410;9.730;2023-12-29T01:27:24;4.50;99.90
47482;DHT22;33219;47.410;9.730;2023-12-29T01:29:51;4.50;99.90
47482;DHT22;33219;47.410;9.730;2023-12-29T01:32:19;4.50;99.90
47482;DHT22;33219;47.410;9.730;2023-12-29T01:34:46;4.60;99.90
47482;DHT22;33219;47.410;9.730;2023-12-29T01:37:13;4.60;99.90
47482;DHT22;33219;47.410;9.730;2023-12-29T01:39:40;4.60;99.90
47482;DHT22;33219;47.410;9.730;2023-12-29T01:42:07;4.70;99.90
47482;DHT22;33219;47.410;9.730;2023-12-29T01:44:34;4.60;99.90
47482;DHT22;33219;47.410;9.730;2023-12-29T01:47:01;4.70;99.90
47482;DHT22;33219;47.410;9.730;2023-12-29T01:49:31;4.60;99.90
47482;DHT22;33219;47.410;9.730;2023-12-29T01:51:59;4.60;99.90
47482;DHT22;33219;47.410;9.730;2023-12-29T01:54:34;4.60;99.90
47482;DHT22;33219;47.410;9.730;2023-12-29T01:56:58;4.50;99.90
47482;DHT22;33219;47.410;9.730;2023-12-29T01:59:25;4.50;99.90
47482;DHT22;33219;47.410;9.730;2023-12-29T02:01:53;4.50;99.90
47482;DHT22;33219;47.410;9.730;2023-12-29T02:04:22;4.60;99.90
47482;DHT22;33219;47.410;9.730;2023-12-29T02:06:49;4.70;99.90
47482;DHT22;33219;47.410;9.730;2023-12-29T02:09:17;4.70;99.90
47482;DHT22;33219;47.410;9.730;2023-12-29T02:11:44;4.70;99.90
47482;DHT22;33219;47.410;9.730;2023-12-29T02:14:11;4.60;99.90
47482;DHT22;33219;47.410;9.730;2023-12-29T02:16:40;4.60;99.90
47482;DHT22;33219;47.410;9.730;2023-12-29T02:19:22;4.60;99.90
47482;DHT22;33219;47.410;9.730;2023-12-29T02:21:44;4.60;99.90
47482;DHT22;33219;47.410;9.730;2023-12-29T02:24:11;4.60;99.90
47482;DHT22;33219;47.410;9.730;2023-12-29T02:26:38;4.60;99.90
47482;DHT22;33219;47.410;9.730;2023-12-29T02:29:06;4.60;99.90
47482;DHT22;33219;47.410;9.730;2023-12-29T02:31:34;4.60;99.90
47482;DHT22;33219;47.410;9.730;2023-12-29T02:34:03;4.60;99.90
47482;DHT22;33219;47.410;9.730;2023-12-29T02:36:32;4.50;99.90
47482;DHT22;33219;47.410;9.730;2023-12-29T02:38:59;4.50;99.90
47482;DHT22;33219;47.410;9.730;2023-12-29T02:41:26;4.60;99.90
47482;DHT22;33219;47.410;9.730;2023-12-29T02:43:53;4.60;99.90
47482;DHT22;33219;47.410;9.730;2023-12-29T02:46:20;4.50;99.90
47482;DHT22;33219;47.410;9.730;2023-12-29T02:48:46;4.60;99.90
47482;DHT22;33219;47.410;9.730;2023-12-29T02:51:13;4.60;99.90
47482;DHT22;33219;47.410;9.730;2023-12-29T02:53:40;4.60;99.90
47482;DHT22;33219;47.410;9.730;2023-12-29T02:56:07;4.60;99.90
47482;DHT22;33219;47.410;9.730;2023-12-29T02:58:34;4.60;99.90
47482;DHT22;33219;47.410;9.730;2023-12-29T03:01:01;4.70;99.90
47482;DHT22;33219;47.410;9.730;2023-12-29T03:03:27;4.60;99.90
47482;DHT22;33219;47.410;9.730;2023-12-29T03:05:54;4.80;99.90
47482;DHT22;33219;47.410;9.730;2023-12-29T03:08:21;4.80;99.90
47482;DHT22;33219;47.410;9.730;2023-12-29T03:10:48;4.90;99.90
47482;DHT22;33219;47.410;9.730;2023-12-29T03:13:15;4.90;99.90
47482;DHT22;33219;47.410;9.730;2023-12-29T03:15:42;4.90;99.90
47482;DHT22;33219;47.410;9.730;2023-12-29T03:18:08;4.90;99.90
47482;DHT22;33219;47.410;9.730;2023-12-29T03:20:35;5.00;99.90
47482;DHT22;33219;47.410;9.730;2023-12-29T03:23:02;5.20;99.90
47482;DHT22;33219;47.410;9.730;2023-12-29T03:25:29;5.40;99.90
47482;DHT22;33219;47.410;9.730;2023-12-29T03:27:56;5.50;99.90
47482;DHT22;33219;47.410;9.730;2023-12-29T03:30:23;5.70;99.90
47482;DHT22;33219;47.410;9.730;2023-12-29T03:32:50;5.80;99.90
47482;DHT22;33219;47.410;9.730;2023-12-29T03:35:16;5.90;99.90
47482;DHT22;33219;47.410;9.730;2023-12-29T03:37:43;5.90;99.90
47482;DHT22;33219;47.410;9.730;2023-12-29T03:40:10;5.80;99.90
47482;DHT22;33219;47.410;9.730;2023-12-29T03:42:39;5.80;99.90
47482;DHT22;33219;47.410;9.730;2023-12-29T03:45:06;5.70;99.90
47482;DHT22;33219;47.410;9.730;2023-12-29T03:47:33;5.70;99.90
47482;DHT22;33219;47.410;9.730;2023-12-29T03:50:01;5.60;99.90
47482;DHT22;33219;47.410;9.730;2023-12-29T03:52:29;5.50;99.90
47482;DHT22;33219;47.410;9.730;2023-12-29T03:54:56;5.40;99.90
47482;DHT22;33219;47.410;9.730;2023-12-29T03:57:23;5.60;99.90
47482;DHT22;33219;47.410;9.730;2023-12-29T03:59:49;5.60;99.90
47482;DHT22;33219;47.410;9.730;2023-12-29T04:02:16;5.60;99.90
47482;DHT22;33219;47.410;9.730;2023-12-29T04:04:43;5.50;99.90
47482;DHT22;33219;47.410;9.730;2023-12-29T04:07:10;5.40;99.90
47482;DHT22;33219;47.410;9.730;2023-12-29T04:09:37;5.30;99.90
47482;DHT22;33219;47.410;9.730;2023-12-29T04:12:04;5.30;99.90
47482;DHT22;33219;47.410;9.730;2023-12-29T04:14:31;5.20;99.90
47482;DHT22;33219;47.410;9.730;2023-12-29T04:16:57;5.20;99.90
47482;DHT22;33219;47.410;9.730;2023-12-29T04:19:26;5.10;99.90
47482;DHT22;33219;47.410;9.730;2023-12-29T04:21:52;5.10;99.90
47482;DHT22;33219;47.410;9.730;2023-12-29T04:24:20;5.10;99.90
47482;DHT22;33219;47.410;9.730;2023-12-29T04:26:46;5.00;99.90
47482;DHT22;33219;47.410;9.730;2023-12-29T04:29:13;5.00;99.90
47482;DHT22;33219;47.410;9.730;2023-12-29T04:31:41;5.00;99.90
47482;DHT22;33219;47.410;9.730;2023-12-29T04:34:09;4.90;99.90
47482;DHT22;33219;47.410;9.730;2023-12-29T04:36:35;4.80;99.90
47482;DHT22;33219;47.410;9.730;2023-12-29T04:39:03;4.80;99.90
47482;DHT22;33219;47.410;9.730;2023-12-29T04:41:29;4.80;99.90
47482;DHT22;33219;47.410;9.730;2023-12-29T04:43:56;4.80;99.90
47482;DHT22;33219;47.410;9.730;2023-12-29T04:46:25;4.80;99.90
47482;DHT22;33219;47.410;9.730;2023-12-29T04:48:51;4.90;99.90
47482;DHT22;33219;47.410;9.730;2023-12-29T04:51:19;4.90;99.90
47482;DHT22;33219;47.410;9.730;2023-12-29T04:53:46;4.90;99.90
47482;DHT22;33219;47.410;9.730;2023-12-29T04:56:13;4.90;99.90
47482;DHT22;33219;47.410;9.730;2023-12-29T04:58:39;5.00;99.90
47482;DHT22;33219;47.410;9.730;2023-12-29T05:01:06;5.00;99.90
47482;DHT22;33219;47.410;9.730;2023-12-29T05:03:34;5.10;99.90
47482;DHT22;33219;47.410;9.730;2023-12-29T05:06:01;5.10;99.90
47482;DHT22;33219;47.410;9.730;2023-12-29T05:08:27;5.10;99.90
47482;DHT22;33219;47.410;9.730;2023-12-29T05:10:54;5.20;99.90
47482;DHT22;33219;47.410;9.730;2023-12-29T05:13:21;5.20;99.90
47482;DHT22;33219;47.410;9.730;2023-12-29T05:15:48;5.30;99.90
47482;DHT22;33219;47.410;9.730;2023-12-29T05:18:15;5.50;99.90
47482;DHT22;33219;47.410;9.730;2023-12-29T05:20:42;5.70;99.90
47482;DHT22;33219;47.410;9.730;2023-12-29T05:23:09;5.90;99.90
47482;DHT22;33219;47.410;9.730;2023-12-29T05:25:36;6.10;99.90
47482;DHT22;33219;47.410;9.730;2023-12-29T05:28:02;6.30;99.90
47482;DHT22;33219;47.410;9.730;2023-12-29T05:30:29;6.50;99.90
47482;DHT22;33219;47.410;9.730;2023-12-29T05:32:58;6.70;99.90
47482;DHT22;33219;47.410;9.730;2023-12-29T05:35:24;6.80;99.90
47482;DHT22;33219;47.410;9.730;2023-12-29T05:37:51;7.00;99.90
47482;DHT22;33219;47.410;9.730;2023-12-29T05:40:18;7.30;99.90
47482;DHT22;33219;47.410;9.730;2023-12-29T05:42:45;7.30;99.90
47482;DHT22;33219;47.410;9.730;2023-12-29T05:45:12;7.40;99.90
47482;DHT22;33219;47.410;9.730;2023-12-29T05:47:39;7.30;99.90
47482;DHT22;33219;47.410;9.730;2023-12-29T05:50:06;6.90;99.90
47482;DHT22;33219;47.410;9.730;2023-12-29T05:52:32;6.60;99.90
47482;DHT22;33219;47.410;9.730;2023-12-29T05:54:59;6.40;99.90
47482;DHT22;33219;47.410;9.730;2023-12-29T05:57:26;6.10;99.90
47482;DHT22;33219;47.410;9.730;2023-12-29T05:59:53;5.90;99.90
47482;DHT22;33219;47.410;9.730;2023-12-29T06:02:20;5.70;99.90
47482;DHT22;33219;47.410;9.730;2023-12-29T06:04:47;5.60;99.90
47482;DHT22;33219;47.410;9.730;2023-12-29T06:07:13;5.50;99.90
47482;DHT22;33219;47.410;9.730;2023-12-29T06:09:40;5.40;99.90
47482;DHT22;33219;47.410;9.730;2023-12-29T06:12:07;5.40;99.90
47482;DHT22;33219;47.410;9.730;2023-12-29T06:14:35;5.40;99.90
47482;DHT22;33219;47.410;9.730;2023-12-29T06:17:03;5.40;99.90
47482;DHT22;33219;47.410;9.730;2023-12-29T06:19:29;5.50;99.90
47482;DHT22;33219;47.410;9.730;2023-12-29T06:21:58;5.50;99.90
47482;DHT22;33219;47.410;9.730;2023-12-29T06:24:25;5.50;99.90
47482;DHT22;33219;47.410;9.730;2023-12-29T06:26:52;5.60;99.90
47482;DHT22;33219;47.410;9.730;2023-12-29T06:29:19;5.70;99.90
47482;DHT22;33219;47.410;9.730;2023-12-29T06:31:46;5.70;99.90
47482;DHT22;33219;47.410;9.730;2023-12-29T06:34:12;5.80;99.90
47482;DHT22;33219;47.410;9.730;2023-12-29T06:36:40;5.90;99.90
47482;DHT22;33219;47.410;9.730;2023-12-29T06:39:06;5.90;99.90
47482;DHT22;33219;47.410;9.730;2023-12-29T06:41:34;5.90;99.90
47482;DHT22;33219;47.410;9.730;2023-12-29T06:44:00;5.90;99.90
47482;DHT22;33219;47.410;9.730;2023-12-29T06:46:28;5.90;99.90
47482;DHT22;33219;47.410;9.730;2023-12-29T06:48:55;5.90;99.90
47482;DHT22;33219;47.410;9.730;2023-12-29T06:51:22;5.90;99.90
47482;DHT22;33219;47.410;9.730;2023-12-29T06:53:49;5.90;99.90
47482;DHT22;33219;47.410;9.730;2023-12-29T06:56:17;5.90;99.90
47482;DHT22;33219;47.410;9.730;2023-12-29T06:58:46;5.80;99.90
47482;DHT22;33219;47.410;9.730;2023-12-29T07:01:13;5.80;99.90
47482;DHT22;33219;47.410;9.730;2023-12-29T07:03:41;5.80;99.90
47482;DHT22;33219;47.410;9.730;2023-12-29T07:06:09;5.80;99.90
47482;DHT22;33219;47.410;9.730;2023-12-29T07:08:36;5.90;99.90
47482;DHT22;33219;47.410;9.730;2023-12-29T07:11:03;5.80;99.90
47482;DHT22;33219;47.410;9.730;2023-12-29T07:13:30;5.80;99.90
47482;DHT22;33219;47.410;9.730;2023-12-29T07:15:56;5.80;99.90
47482;DHT22;33219;47.410;9.730;2023-12-29T07:18:23;5.70;99.90
47482;DHT22;33219;47.410;9.730;2023-12-29T07:20:50;5.70;99.90
47482;DHT22;33219;47.410;9.730;2023-12-29T07:23:17;5.70;99.90
47482;DHT22;33219;47.410;9.730;2023-12-29T07:25:44;5.60;99.90
47482;DHT22;33219;47.410;9.730;2023-12-29T07:28:10;5.60;99.90
47482;DHT22;33219;47.410;9.730;2023-12-29T07:30:37;5.70;99.90
47482;DHT22;33219;47.410;9.730;2023-12-29T07:33:04;5.70;99.90
47482;DHT22;33219;47.410;9.730;2023-12-29T07:35:31;5.60;99.90
47482;DHT22;33219;47.410;9.730;2023-12-29T07:37:58;5.60;99.90
47482;DHT22;33219;47.410;9.730;2023-12-29T07:40:24;5.60;99.90
47482;DHT22;33219;47.410;9.730;2023-12-29T07:42:52;5.70;99.90
47482;DHT22;33219;47.410;9.730;2023-12-29T07:45:19;5.70;99.90
47482;DHT22;33219;47.410;9.730;2023-12-29T07:47:45;5.70;99.90
47482;DHT22;33219;47.410;9.730;2023-12-29T07:50:12;5.70;99.90
47482;DHT22;33219;47.410;9.730;2023-12-29T07:52:39;5.60;99.90
47482;DHT22;33219;47.410;9.730;2023-12-29T07:55:06;5.70;99.90
47482;DHT22;33219;47.410;9.730;2023-12-29T07:57:33;5.70;99.90
47482;DHT22;33219;47.410;9.730;2023-12-29T08:00:00;5.70;99.90
47482;DHT22;33219;47.410;9.730;2023-12-29T08:02:27;5.70;99.90
47482;DHT22;33219;47.410;9.730;2023-12-29T08:04:54;5.80;99.90
47482;DHT22;33219;47.410;9.730;2023-12-29T08:07:21;5.80;99.90
47482;DHT22;33219;47.410;9.730;2023-12-29T08:09:48;5.80;99.90
47482;DHT22;33219;47.410;9.730;2023-12-29T08:12:14;5.80;99.90
47482;DHT22;33219;47.410;9.730;2023-12-29T08:14:41;5.80;99.90
47482;DHT22;33219;47.410;9.730;2023-12-29T08:17:08;5.80;99.90
47482;DHT22;33219;47.410;9.730;2023-12-29T08:19:35;5.80;99.90
47482;DHT22;33219;47.410;9.730;2023-12-29T08:22:02;5.90;99.90
47482;DHT22;33219;47.410;9.730;2023-12-29T08:24:29;6.00;99.90
47482;DHT22;33219;47.410;9.730;2023-12-29T08:26:56;5.90;99.90
47482;DHT22;33219;47.410;9.730;2023-12-29T08:29:23;5.90;99.90
47482;DHT22;33219;47.410;9.730;2023-12-29T08:31:51;5.90;99.90
47482;DHT22;33219;47.410;9.730;2023-12-29T08:34:18;5.90;99.90
47482;DHT22;33219;47.410;9.730;2023-12-29T08:36:45;5.90;99.90
47482;DHT22;33219;47.410;9.730;2023-12-29T08:39:12;6.00;99.90
47482;DHT22;33219;47.410;9.730;2023-12-29T08:41:39;6.00;99.90
47482;DHT22;33219;47.410;9.730;2023-12-29T08:44:07;6.00;99.90
47482;DHT22;33219;47.410;9.730;2023-12-29T08:46:34;6.10;99.90
47482;DHT22;33219;47.410;9.730;2023-12-29T08:49:01;6.10;99.90
47482;DHT22;33219;47.410;9.730;2023-12-29T08:51:28;6.10;99.90
47482;DHT22;33219;47.410;9.730;2023-12-29T08:53:55;6.10;99.90
47482;DHT22;33219;47.410;9.730;2023-12-29T08:56:22;6.20;99.90
47482;DHT22;33219;47.410;9.730;2023-12-29T08:58:48;6.20;99.90
47482;DHT22;33219;47.410;9.730;2023-12-29T09:01:15;6.20;99.90
47482;DHT22;33219;47.410;9.730;2023-12-29T09:03:42;6.40;99.90
47482;DHT22;33219;47.410;9.730;2023-12-29T09:06:09;6.40;99.90
47482;DHT22;33219;47.410;9.730;2023-12-29T09:08:36;6.50;99.90
47482;DHT22;33219;47.410;9.730;2023-12-29T09:11:03;6.50;99.90
47482;DHT22;33219;47.410;9.730;2023-12-29T09:13:30;6.50;99.90
47482;DHT22;33219;47.410;9.730;2023-12-29T09:15:58;6.50;99.90
47482;DHT22;33219;47.410;9.730;2023-12-29T09:18:25;6.50;99.90
47482;DHT22;33219;47.410;9.730;2023-12-29T09:20:51;6.60;99.90
47482;DHT22;33219;47.410;9.730;2023-12-29T09:23:18;6.60;99.90
47482;DHT22;33219;47.410;9.730;2023-12-29T09:25:46;6.70;99.90
47482;DHT22;33219;47.410;9.730;2023-12-29T09:28:13;6.80;99.90
47482;DHT22;33219;47.410;9.730;2023-12-29T09:30:39;7.00;99.90
47482;DHT22;33219;47.410;9.730;2023-12-29T09:33:06;7.10;99.90
47482;DHT22;33219;47.410;9.730;2023-12-29T09:35:33;7.20;99.90
47482;DHT22;33219;47.410;9.730;2023-12-29T09:38:00;7.30;99.90
47482;DHT22;33219;47.410;9.730;2023-12-29T09:40:27;7.40;99.90
47482;DHT22;33219;47.410;9.730;2023-12-29T09:42:54;7.40;99.90
47482;DHT22;33219;47.410;9.730;2023-12-29T09:45:23;7.50;99.90
47482;DHT22;33219;47.410;9.730;2023-12-29T09:47:51;7.60;99.90
47482;DHT22;33219;47.410;9.730;2023-12-29T09:50:19;7.80;99.90
47482;DHT22;33219;47.410;9.730;2023-12-29T09:52:52;7.80;99.90
47482;DHT22;33219;47.410;9.730;2023-12-29T09:55:18;7.90;99.90
47482;DHT22;33219;47.410;9.730;2023-12-29T09:57:46;8.00;99.90
47482;DHT22;33219;47.410;9.730;2023-12-29T10:00:15;8.00;99.90
47482;DHT22;33219;47.410;9.730;2023-12-29T10:02:42;8.00;99.90
47482;DHT22;33219;47.410;9.730;2023-12-29T10:05:09;8.10;99.90
47482;DHT22;33219;47.410;9.730;2023-12-29T10:07:36;8.20;99.90
47482;DHT22;33219;47.410;9.730;2023-12-29T10:10:05;8.30;99.90
47482;DHT22;33219;47.410;9.730;2023-12-29T10:12:36;8.40;99.90
47482;DHT22;33219;47.410;9.730;2023-12-29T10:15:10;8.40;99.90
47482;DHT22;33219;47.410;9.730;2023-12-29T10:22:51;8.50;99.90
47482;DHT22;33219;47.410;9.730;2023-12-29T10:25:19;8.40;99.90
47482;DHT22;33219;47.410;9.730;2023-12-29T10:27:45;8.30;99.90
47482;DHT22;33219;47.410;9.730;2023-12-29T10:30:12;8.30;99.90
47482;DHT22;33219;47.410;9.730;2023-12-29T10:32:39;8.20;99.90
47482;DHT22;33219;47.410;9.730;2023-12-29T10:35:09;8.20;99.90
47482;DHT22;33219;47.410;9.730;2023-12-29T10:37:37;8.20;99.90
47482;DHT22;33219;47.410;9.730;2023-12-29T10:40:04;8.30;99.90
47482;DHT22;33219;47.410;9.730;2023-12-29T10:42:31;8.30;99.90
47482;DHT22;33219;47.410;9.730;2023-12-29T10:45:05;8.30;99.90
47482;DHT22;33219;47.410;9.730;2023-12-29T10:47:35;8.40;99.90
47482;DHT22;33219;47.410;9.730;2023-12-29T10:50:02;8.40;99.90
47482;DHT22;33219;47.410;9.730;2023-12-29T10:52:29;8.40;99.90
47482;DHT22;33219;47.410;9.730;2023-12-29T10:55:04;8.40;99.90
47482;DHT22;33219;47.410;9.730;2023-12-29T10:57:30;8.40;99.90
47482;DHT22;33219;47.410;9.730;2023-12-29T10:59:58;8.40;99.90
47482;DHT22;33219;47.410;9.730;2023-12-29T11:02:27;8.30;99.90
47482;DHT22;33219;47.410;9.730;2023-12-29T11:05:07;8.30;99.90
47482;DHT22;33219;47.410;9.730;2023-12-29T11:07:35;8.30;99.90
47482;DHT22;33219;47.410;9.730;2023-12-29T11:10:03;8.30;99.90
47482;DHT22;33219;47.410;9.730;2023-12-29T11:12:34;8.30;99.90
47482;DHT22;33219;47.410;9.730;2023-12-29T11:15:01;8.20;99.90
47482;DHT22;33219;47.410;9.730;2023-12-29T11:17:29;8.20;99.90
47482;DHT22;33219;47.410;9.730;2023-12-29T11:19:58;8.20;99.90
47482;DHT22;33219;47.410;9.730;2023-12-29T11:22:26;8.20;99.90
47482;DHT22;33219;47.410;9.730;2023-12-29T11:24:54;8.20;99.90
47482;DHT22;33219;47.410;9.730;2023-12-29T11:27:23;8.20;99.90
47482;DHT22;33219;47.410;9.730;2023-12-29T11:29:50;8.30;99.90
47482;DHT22;33219;47.410;9.730;2023-12-29T11:32:22;8.30;99.90
47482;DHT22;33219;47.410;9.730;2023-12-29T11:34:53;8.40;99.90
47482;DHT22;33219;47.410;9.730;2023-12-29T11:37:40;8.50;99.90
47482;DHT22;33219;47.410;9.730;2023-12-29T11:39:52;8.40;99.90
47482;DHT22;33219;47.410;9.730;2023-12-29T11:42:21;8.40;99.90
47482;DHT22;33219;47.410;9.730;2023-12-29T11:44:48;8.40;99.90
47482;DHT22;33219;47.410;9.730;2023-12-29T11:47:35;8.40;99.90
47482;DHT22;33219;47.410;9.730;2023-12-29T11:50:03;8.40;99.90
47482;DHT22;33219;47.410;9.730;2023-12-29T11:52:33;8.30;99.90
47482;DHT22;33219;47.410;9.730;2023-12-29T11:55:07;8.30;99.90
47482;DHT22;33219;47.410;9.730;2023-12-29T11:57:34;8.30;99.90
47482;DHT22;33219;47.410;9.730;2023-12-29T12:00:02;8.30;99.90
47482;DHT22;33219;47.410;9.730;2023-12-29T12:02:32;8.40;99.90
47482;DHT22;33219;47.410;9.730;2023-12-29T12:04:59;8.40;99.90
47482;DHT22;33219;47.410;9.730;2023-12-29T12:12:39;8.40;99.90
47482;DHT22;33219;47.410;9.730;2023-12-29T12:17:51;8.60;99.90
47482;DHT22;33219;47.410;9.730;2023-12-29T12:20:18;8.80;99.90
47482;DHT22;33219;47.410;9.730;2023-12-29T12:22:45;8.80;99.90
47482;DHT22;33219;47.410;9.730;2023-12-29T12:25:14;9.00;99.90
47482;DHT22;33219;47.410;9.730;2023-12-29T12:27:41;9.10;99.90
47482;DHT22;33219;47.410;9.730;2023-12-29T12:30:09;9.30;99.90
47482;DHT22;33219;47.410;9.730;2023-12-29T12:32:36;9.40;99.90
47482;DHT22;33219;47.410;9.730;2023-12-29T12:35:03;9.60;99.90
47482;DHT22;33219;47.410;9.730;2023-12-29T12:37:30;9.70;99.90
47482;DHT22;33219;47.410;9.730;2023-12-29T12:39:57;9.80;99.90
47482;DHT22;33219;47.410;9.730;2023-12-29T12:42:23;9.80;99.90
47482;DHT22;33219;47.410;9.730;2023-12-29T12:44:54;9.90;99.90
47482;DHT22;33219;47.410;9.730;2023-12-29T12:47:22;10.00;99.90
47482;DHT22;33219;47.410;9.730;2023-12-29T12:49:47;10.20;99.90
47482;DHT22;33219;47.410;9.730;2023-12-29T12:52:14;10.30;99.90
47482;DHT22;33219;47.410;9.730;2023-12-29T12:54:41;10.50;99.90
47482;DHT22;33219;47.410;9.730;2023-12-29T12:57:08;10.70;99.90
47482;DHT22;33219;47.410;9.730;2023-12-29T12:59:35;10.90;99.90
47482;DHT22;33219;47.410;9.730;2023-12-29T13:02:02;11.00;99.90
47482;DHT22;33219;47.410;9.730;2023-12-29T13:04:31;11.20;99.90
47482;DHT22;33219;47.410;9.730;2023-12-29T13:06:58;11.30;99.90
47482;DHT22;33219;47.410;9.730;2023-12-29T13:09:25;11.40;99.90
47482;DHT22;33219;47.410;9.730;2023-12-29T13:12:06;11.50;99.90
47482;DHT22;33219;47.410;9.730;2023-12-29T13:14:23;11.70;99.90
47482;DHT22;33219;47.410;9.730;2023-12-29T13:16:51;11.80;99.90
47482;DHT22;33219;47.410;9.730;2023-12-29T13:19:18;11.80;99.90
47482;DHT22;33219;47.410;9.730;2023-12-29T13:21:51;11.90;99.90
47482;DHT22;33219;47.410;9.730;2023-12-29T13:24:14;11.90;99.90
47482;DHT22;33219;47.410;9.730;2023-12-29T13:26:44;11.90;99.90
47482;DHT22;33219;47.410;9.730;2023-12-29T13:29:13;11.90;99.90
47482;DHT22;33219;47.410;9.730;2023-12-29T13:31:40;11.90;98.90
47482;DHT22;33219;47.410;9.730;2023-12-29T13:34:11;11.80;98.90
47482;DHT22;33219;47.410;9.730;2023-12-29T13:36:41;11.70;99.10
47482;DHT22;33219;47.410;9.730;2023-12-29T13:41:44;11.50;99.20
47482;DHT22;33219;47.410;9.730;2023-12-29T13:44:11;11.40;98.70
47482;DHT22;33219;47.410;9.730;2023-12-29T13:46:38;11.20;99.10
47482;DHT22;33219;47.410;9.730;2023-12-29T13:49:05;11.20;99.30
47482;DHT22;33219;47.410;9.730;2023-12-29T13:51:33;11.20;98.10
47482;DHT22;33219;47.410;9.730;2023-12-29T13:54:00;11.10;98.70
47482;DHT22;33219;47.410;9.730;2023-12-29T13:56:27;11.00;99.50
47482;DHT22;33219;47.410;9.730;2023-12-29T13:58:54;10.90;99.40
47482;DHT22;33219;47.410;9.730;2023-12-29T14:01:21;11.00;99.20
47482;DHT22;33219;47.410;9.730;2023-12-29T14:03:55;10.90;99.20
47482;DHT22;33219;47.410;9.730;2023-12-29T14:06:20;10.90;99.10
47482;DHT22;33219;47.410;9.730;2023-12-29T14:08:47;10.80;99.60
47482;DHT22;33219;47.410;9.730;2023-12-29T14:11:14;10.80;99.10
47482;DHT22;33219;47.410;9.730;2023-12-29T14:13:41;10.80;99.00
47482;DHT22;33219;47.410;9.730;2023-12-29T14:16:09;10.80;99.40
47482;DHT22;33219;47.410;9.730;2023-12-29T14:21:23;10.80;99.50
47482;DHT22;33219;47.410;9.730;2023-12-29T14:26:30;10.80;99.60
47482;DHT22;33219;47.410;9.730;2023-12-29T14:29:04;10.80;99.70
47482;DHT22;33219;47.410;9.730;2023-12-29T14:31:35;10.80;99.50
47482;DHT22;33219;47.410;9.730;2023-12-29T14:34:00;10.80;99.40
47482;DHT22;33219;47.410;9.730;2023-12-29T14:36:27;10.80;99.30
47482;DHT22;33219;47.410;9.730;2023-12-29T14:38:53;10.90;99.40
47482;DHT22;33219;47.410;9.730;2023-12-29T14:41:20;10.80;99.70
47482;DHT22;33219;47.410;9.730;2023-12-29T14:43:47;10.90;99.80
47482;DHT22;33219;47.410;9.730;2023-12-29T14:46:14;10.80;99.90
47482;DHT22;33219;47.410;9.730;2023-12-29T14:48:41;10.70;99.90
47482;DHT22;33219;47.410;9.730;2023-12-29T14:51:08;10.70;99.90
47482;DHT22;33219;47.410;9.730;2023-12-29T14:53:34;10.70;99.90
47482;DHT22;33219;47.410;9.730;2023-12-29T14:56:02;10.70;99.90
47482;DHT22;33219;47.410;9.730;2023-12-29T14:58:29;10.60;99.90
47482;DHT22;33219;47.410;9.730;2023-12-29T15:00:58;10.60;99.90
47482;DHT22;33219;47.410;9.730;2023-12-29T15:03:25;10.50;99.90
47482;DHT22;33219;47.410;9.730;2023-12-29T15:05:51;10.40;99.90
47482;DHT22;33219;47.410;9.730;2023-12-29T15:08:18;10.30;99.90
47482;DHT22;33219;47.410;9.730;2023-12-29T15:10:45;10.20;99.90
47482;DHT22;33219;47.410;9.730;2023-12-29T15:13:12;10.10;99.90
47482;DHT22;33219;47.410;9.730;2023-12-29T15:15:39;10.00;99.90
47482;DHT22;33219;47.410;9.730;2023-12-29T15:18:06;10.00;99.90
47482;DHT22;33219;47.410;9.730;2023-12-29T15:20:32;9.90;99.90
47482;DHT22;33219;47.410;9.730;2023-12-29T15:22:59;9.90;99.90
47482;DHT22;33219;47.410;9.730;2023-12-29T15:25:28;9.80;99.90
47482;DHT22;33219;47.410;9.730;2023-12-29T15:27:55;9.80;99.90
47482;DHT22;33219;47.410;9.730;2023-12-29T15:30:22;9.80;99.90
47482;DHT22;33219;47.410;9.730;2023-12-29T15:32:49;9.70;99.90
47482;DHT22;33219;47.410;9.730;2023-12-29T15:35:15;9.70;99.90
47482;DHT22;33219;47.410;9.730;2023-12-29T15:37:42;9.60;99.90
47482;DHT22;33219;47.410;9.730;2023-12-29T15:40:09;9.50;99.90
47482;DHT22;33219;47.410;9.730;2023-12-29T15:42:36;9.50;99.90
47482;DHT22;33219;47.410;9.730;2023-12-29T15:45:03;9.40;99.90
47482;DHT22;33219;47.410;9.730;2023-12-29T15:47:30;9.50;99.90
47482;DHT22;33219;47.410;9.730;2023-12-29T15:49:57;9.50;99.90
47482;DHT22;33219;47.410;9.730;2023-12-29T15:52:24;9.40;99.90
47482;DHT22;33219;47.410;9.730;2023-12-29T15:54:52;9.40;99.90
47482;DHT22;33219;47.410;9.730;2023-12-29T15:57:20;9.50;99.90
47482;DHT22;33219;47.410;9.730;2023-12-29T15:59:47;9.50;99.90
47482;DHT22;33219;47.410;9.730;2023-12-29T16:02:14;9.50;99.90
47482;DHT22;33219;47.410;9.730;2023-12-29T16:04:40;9.50;99.90
47482;DHT22;33219;47.410;9.730;2023-12-29T16:07:07;9.60;99.90